Lockridge, Iowa
Current Conditions -  °F | °C
As of 2:55 AM on Wednesday 26 Nov 2014 (Local Time) from KMPZ Reporting Station
Clear Clear  
Wind Chill: 14°   Ceiling: Unl
Heat Index: 23°   Visibility: 10mi
Dew Point: 20°   Wind: 8mph
Humidity: 90%   Direction: 120°ESE
Pressure: 30.05"   Gusts: NA
Location:  40.99°N, 91.75°W
Report Text: KMPZ 260855Z AUTO 12007KT 10SM CLR M05/M06 A3005 RMK AO2 T10511065
Loading
Personal Weather Stations






























Interactive Weather Map New forecast layout! Learn more

10-Day Weather Forecast

Advertisements
Track Severe Weather on mobile